Time;durP1;ratioP1;P1;durP2;ratioP2;P2;SDS_P1;SDS_P2;PMS_P1;PMS_P2;Temp;Humidity;BMP_temperature;BMP_pressure;BME280_temperature;BME280_humidity;BME280_pressure;Samples;Min_cycle;Max_cycle;Signal;HPM_P1;HPM_P2
2023/10/23 00:01:01;;;;;;;1.63;0.70;;;8.30;99.90;;;;;;5070831;28;20224;-71
2023/10/23 00:03:27;;;;;;;4.27;1.20;;;8.20;99.90;;;;;;5069232;28;20654;-70
2023/10/23 00:05:53;;;;;;;4.67;1.27;;;8.20;99.90;;;;;;5070981;28;20207;-71
2023/10/23 00:08:19;;;;;;;6.00;1.23;;;8.10;99.90;;;;;;5070758;28;20241;-71
2023/10/23 00:10:44;;;;;;;3.73;1.03;;;8.10;99.90;;;;;;5069387;28;20661;-71
2023/10/23 00:13:11;;;;;;;5.03;0.90;;;8.00;99.90;;;;;;5070484;28;20615;-70
2023/10/23 00:15:37;;;;;;;1.00;0.70;;;8.00;99.90;;;;;;5070389;28;20186;-70
2023/10/23 00:18:03;;;;;;;5.33;0.87;;;7.90;99.90;;;;;;5070209;28;20495;-70
2023/10/23 00:20:28;;;;;;;5.83;0.80;;;8.00;99.90;;;;;;5070678;28;20652;-71
2023/10/23 00:22:54;;;;;;;1.97;0.90;;;8.00;99.90;;;;;;5068652;28;20769;-70
2023/10/23 00:25:20;;;;;;;3.77;1.00;;;8.00;99.90;;;;;;5068618;28;20207;-71
2023/10/23 00:27:45;;;;;;;4.63;0.97;;;8.00;99.90;;;;;;5070438;28;20836;-70
2023/10/23 00:30:11;;;;;;;6.63;1.20;;;8.00;99.90;;;;;;5070094;28;20183;-70
2023/10/23 00:32:37;;;;;;;4.17;0.90;;;7.80;99.90;;;;;;5068381;28;20175;-70
2023/10/23 00:35:03;;;;;;;5.63;1.10;;;7.80;99.90;;;;;;5070217;28;20429;-70
2023/10/23 00:37:29;;;;;;;3.63;0.80;;;7.80;99.90;;;;;;5070066;28;20205;-70
2023/10/23 00:39:54;;;;;;;3.00;1.07;;;7.90;99.90;;;;;;5070169;28;20918;-70
2023/10/23 00:42:20;;;;;;;1.70;0.70;;;8.00;99.90;;;;;;5068404;28;20220;-70
2023/10/23 00:44:45;;;;;;;5.43;0.77;;;7.90;99.90;;;;;;5068126;28;20215;-70
2023/10/23 00:47:11;;;;;;;2.50;0.70;;;7.80;99.90;;;;;;5069762;28;20282;-70
2023/10/23 00:49:37;;;;;;;5.00;0.90;;;7.80;99.90;;;;;;5069769;28;20239;-70
2023/10/23 00:52:03;;;;;;;5.10;1.47;;;7.70;99.90;;;;;;5069588;28;20211;-70
2023/10/23 00:54:30;;;;;;;1.47;0.90;;;7.60;99.90;;;;;;5069708;28;20525;-69
2023/10/23 00:56:56;;;;;;;7.80;1.20;;;7.70;99.90;;;;;;5067988;28;20477;-69
2023/10/23 00:59:22;;;;;;;3.67;1.27;;;7.70;99.90;;;;;;5069495;28;20418;-70
2023/10/23 01:01:47;;;;;;;5.77;1.23;;;7.70;99.90;;;;;;5069207;28;20463;-70
2023/10/23 01:04:13;;;;;;;13.30;1.40;;;7.60;99.90;;;;;;5069321;28;21281;-70
2023/10/23 01:06:39;;;;;;;2.17;1.10;;;7.60;99.90;;;;;;5069307;28;20241;-70
2023/10/23 01:09:05;;;;;;;5.53;0.80;;;7.60;99.90;;;;;;5069342;28;20479;-70
2023/10/23 01:11:32;;;;;;;3.40;0.90;;;7.50;99.90;;;;;;5069388;28;20840;-71
2023/10/23 01:13:58;;;;;;;3.93;0.80;;;7.50;99.90;;;;;;5067528;28;20440;-71
2023/10/23 01:16:23;;;;;;;2.90;0.90;;;7.50;99.90;;;;;;5069003;28;20449;-71
2023/10/23 01:18:49;;;;;;;1.40;0.80;;;7.50;99.90;;;;;;5068930;28;20560;-71
2023/10/23 01:21:15;;;;;;;7.53;1.23;;;7.50;99.90;;;;;;5068863;28;20195;-71
2023/10/23 01:23:45;;;;;;;3.33;1.00;;;7.50;99.90;;;;;;5067433;28;20191;-71
2023/10/23 01:26:10;;;;;;;3.97;1.30;;;7.50;99.90;;;;;;5068674;28;20183;-70
2023/10/23 01:28:36;;;;;;;2.40;1.20;;;7.40;99.90;;;;;;5068726;28;20490;-71
2023/10/23 01:31:02;;;;;;;3.07;1.37;;;7.40;99.90;;;;;;5068630;28;20237;-71
2023/10/23 01:33:28;;;;;;;3.07;1.20;;;7.40;99.90;;;;;;5067406;28;20199;-71
2023/10/23 01:35:54;;;;;;;4.70;1.40;;;7.40;99.90;;;;;;5068676;28;20271;-71
2023/10/23 01:38:19;;;;;;;5.30;1.40;;;7.30;99.90;;;;;;5068651;28;20530;-71
2023/10/23 01:40:45;;;;;;;6.13;3.50;;;7.30;99.90;;;;;;5067140;28;20236;-71
2023/10/23 01:43:10;;;;;;;3.63;1.47;;;7.30;99.90;;;;;;5068616;28;20211;-71
2023/10/23 01:45:36;;;;;;;2.63;1.10;;;7.10;99.90;;;;;;5068670;28;20203;-71
2023/10/23 01:48:02;;;;;;;6.80;1.20;;;7.10;99.90;;;;;;5067535;28;20689;-71
2023/10/23 01:50:27;;;;;;;3.77;1.30;;;6.90;99.90;;;;;;5069258;28;20180;-70
2023/10/23 01:52:53;;;;;;;2.50;0.67;;;6.60;99.90;;;;;;5069377;28;20190;-70
2023/10/23 01:55:18;;;;;;;4.40;1.20;;;6.50;99.90;;;;;;5069355;28;20217;-71
2023/10/23 01:57:44;;;;;;;4.00;1.10;;;6.50;99.90;;;;;;5069246;28;20546;-71
2023/10/23 02:00:10;;;;;;;2.37;0.80;;;6.70;99.90;;;;;;5067838;28;20275;-70
2023/10/23 02:02:36;;;;;;;2.40;0.87;;;6.80;99.90;;;;;;5069175;28;20204;-71
2023/10/23 02:05:02;;;;;;;3.93;1.00;;;6.80;99.90;;;;;;5067799;28;20466;-71
2023/10/23 02:07:28;;;;;;;6.43;0.93;;;6.80;99.90;;;;;;5069243;28;20519;-71
2023/10/23 02:09:55;;;;;;;2.43;1.27;;;6.80;99.90;;;;;;5069053;28;20447;-71
2023/10/23 02:12:21;;;;;;;3.53;1.00;;;6.80;99.90;;;;;;5068764;28;20183;-71
2023/10/23 02:14:50;;;;;;;4.10;1.20;;;6.70;99.90;;;;;;5068665;28;20804;-71
2023/10/23 02:17:19;;;;;;;2.83;1.17;;;6.70;99.90;;;;;;5066876;28;20211;-71
2023/10/23 02:19:45;;;;;;;5.50;1.27;;;6.70;99.90;;;;;;5067265;28;21007;-71
2023/10/23 02:22:11;;;;;;;4.43;0.80;;;6.60;99.90;;;;;;5066819;28;20932;-71
2023/10/23 02:24:36;;;;;;;4.00;1.80;;;6.60;99.90;;;;;;5066838;28;20460;-71
2023/10/23 02:27:02;;;;;;;3.20;1.00;;;6.60;99.90;;;;;;5067056;28;20198;-71
2023/10/23 02:29:28;;;;;;;4.63;1.03;;;6.60;99.90;;;;;;5068344;28;20199;-71
2023/10/23 02:31:54;;;;;;;9.03;1.10;;;6.60;99.90;;;;;;5068163;28;20452;-70
2023/10/23 02:34:20;;;;;;;7.53;1.10;;;6.60;99.90;;;;;;5068156;28;20214;-71
2023/10/23 02:36:46;;;;;;;3.70;0.70;;;6.60;99.90;;;;;;5068108;28;20908;-71
2023/10/23 02:39:11;;;;;;;2.13;0.83;;;6.60;99.90;;;;;;5066815;28;20181;-71
2023/10/23 02:41:37;;;;;;;3.10;1.10;;;6.50;99.90;;;;;;5066627;28;20818;-70
2023/10/23 02:44:04;;;;;;;5.63;1.10;;;6.50;99.90;;;;;;5068045;28;20743;-70
2023/10/23 02:46:29;;;;;;;4.37;1.23;;;6.40;99.90;;;;;;5067927;28;20521;-70
2023/10/23 02:48:55;;;;;;;2.60;1.47;;;6.40;99.90;;;;;;5066661;28;20905;-70
2023/10/23 02:51:20;;;;;;;1.90;1.20;;;6.50;99.90;;;;;;5068301;28;20737;-70
2023/10/23 02:53:46;;;;;;;3.63;1.30;;;6.50;99.90;;;;;;5067926;28;20274;-70
2023/10/23 02:56:12;;;;;;;3.23;1.37;;;6.60;99.90;;;;;;5067789;28;20611;-71
2023/10/23 02:58:38;;;;;;;3.77;1.40;;;6.60;99.90;;;;;;5067945;28;20676;-71
2023/10/23 03:01:17;;;;;;;10.40;1.47;;;6.70;99.90;;;;;;5067762;28;20426;-70
2023/10/23 03:03:43;;;;;;;1.33;1.23;;;6.60;99.90;;;;;;5067928;28;20917;-71
2023/10/23 03:06:09;;;;;;;3.13;1.00;;;6.60;99.90;;;;;;5067868;28;20438;-70
2023/10/23 03:08:35;;;;;;;7.47;2.00;;;6.50;99.90;;;;;;5067841;28;20775;-70
2023/10/23 03:11:00;;;;;;;4.20;1.40;;;6.40;99.90;;;;;;5067874;28;20426;-70
2023/10/23 03:13:26;;;;;;;4.13;1.27;;;6.40;99.90;;;;;;5067797;28;20199;-70
2023/10/23 03:15:52;;;;;;;5.10;1.80;;;6.40;99.90;;;;;;5067950;28;20233;-70
2023/10/23 03:18:17;;;;;;;3.73;1.67;;;6.40;99.90;;;;;;5067915;28;20202;-70
2023/10/23 03:20:43;;;;;;;5.20;1.50;;;6.30;99.90;;;;;;5067797;28;20414;-70
2023/10/23 03:23:08;;;;;;;4.47;1.63;;;6.30;99.90;;;;;;5068022;28;20211;-70
2023/10/23 03:25:34;;;;;;;2.50;0.90;;;6.30;99.90;;;;;;5068198;28;20695;-70
2023/10/23 03:28:00;;;;;;;9.90;1.87;;;6.30;99.90;;;;;;5071948;28;20197;-70
2023/10/23 03:30:26;;;;;;;2.37;1.30;;;6.20;99.90;;;;;;5072034;28;20405;-70
2023/10/23 03:32:51;;;;;;;4.90;1.30;;;6.20;99.90;;;;;;5072128;28;20175;-70
2023/10/23 03:35:17;;;;;;;5.03;1.30;;;6.20;99.90;;;;;;5072030;28;20610;-70
2023/10/23 03:37:42;;;;;;;2.07;1.00;;;6.30;99.90;;;;;;5072002;28;20203;-70
2023/10/23 03:40:10;;;;;;;3.40;1.27;;;6.30;99.90;;;;;;5072008;28;20649;-70
2023/10/23 03:42:36;;;;;;;5.87;1.30;;;6.30;99.90;;;;;;5072001;28;20687;-70
2023/10/23 03:45:02;;;;;;;4.60;1.13;;;6.20;99.90;;;;;;5071981;28;20464;-70
2023/10/23 03:47:27;;;;;;;5.60;1.83;;;6.20;99.90;;;;;;5071688;28;20463;-70
2023/10/23 03:49:53;;;;;;;2.13;0.90;;;6.20;99.90;;;;;;5071536;28;20426;-70
2023/10/23 03:52:19;;;;;;;2.80;1.10;;;6.20;99.90;;;;;;5071304;28;20262;-70
2023/10/23 03:54:44;;;;;;;4.80;1.27;;;6.20;99.90;;;;;;5071156;28;20187;-70
2023/10/23 03:57:10;;;;;;;1.67;1.13;;;6.10;99.90;;;;;;5069798;28;20238;-70
2023/10/23 03:59:35;;;;;;;3.23;1.40;;;6.20;99.90;;;;;;5070947;28;20275;-70
2023/10/23 04:02:01;;;;;;;2.93;1.30;;;6.20;99.90;;;;;;5069149;28;20668;-70
2023/10/23 04:04:26;;;;;;;2.90;1.03;;;6.20;99.90;;;;;;5070589;28;20203;-70
2023/10/23 04:06:52;;;;;;;1.20;1.10;;;6.20;99.90;;;;;;5070606;28;20303;-70
2023/10/23 04:09:17;;;;;;;8.87;1.30;;;6.20;99.90;;;;;;5070557;28;20180;-70
2023/10/23 04:11:43;;;;;;;4.90;1.10;;;6.20;99.90;;;;;;5070458;28;20944;-70
2023/10/23 04:14:09;;;;;;;3.83;1.50;;;6.20;99.90;;;;;;5068498;28;20192;-70
2023/10/23 04:16:35;;;;;;;4.10;1.00;;;6.20;99.90;;;;;;5069075;28;20211;-70
2023/10/23 04:19:00;;;;;;;3.70;1.20;;;6.20;99.90;;;;;;5067746;28;20188;-70
2023/10/23 04:21:26;;;;;;;4.57;1.47;;;6.20;99.90;;;;;;5067361;28;20425;-70
2023/10/23 04:23:52;;;;;;;3.60;1.40;;;6.20;99.90;;;;;;5068818;28;20643;-70
2023/10/23 04:26:17;;;;;;;3.40;1.40;;;6.10;99.90;;;;;;5067360;28;20191;-70
2023/10/23 04:28:43;;;;;;;4.87;1.47;;;6.10;99.90;;;;;;5068894;28;20548;-71
2023/10/23 04:31:09;;;;;;;9.80;1.47;;;5.90;99.90;;;;;;5068765;28;20273;-70
2023/10/23 04:33:35;;;;;;;8.70;1.30;;;5.80;99.90;;;;;;5050873;28;20201;-70
2023/10/23 04:36:01;;;;;;;5.17;1.03;;;5.70;99.90;;;;;;5066664;28;20473;-71
2023/10/23 04:38:26;;;;;;;6.03;1.37;;;5.60;99.90;;;;;;5066768;28;20948;-70
2023/10/23 04:40:55;;;;;;;9.07;2.20;;;5.60;99.90;;;;;;5068414;28;20622;-70
2023/10/23 04:43:21;;;;;;;1.60;1.40;;;5.80;99.90;;;;;;5068405;28;20186;-70
2023/10/23 04:45:48;;;;;;;1.93;1.23;;;5.80;99.90;;;;;;5068308;28;20465;-71
2023/10/23 04:48:14;;;;;;;4.10;1.87;;;5.80;99.90;;;;;;5066986;28;20888;-70
2023/10/23 04:50:39;;;;;;;4.50;1.67;;;5.70;99.90;;;;;;5066686;28;20413;-70
2023/10/23 04:53:06;;;;;;;3.37;1.40;;;5.70;99.90;;;;;;5066747;28;20417;-70
2023/10/23 04:55:33;;;;;;;3.73;1.10;;;5.70;99.90;;;;;;5068210;28;20195;-70
2023/10/23 04:58:00;;;;;;;4.60;1.30;;;5.70;99.90;;;;;;5066430;28;20528;-70
2023/10/23 05:00:26;;;;;;;2.43;1.50;;;5.60;99.90;;;;;;5067971;28;20414;-70
2023/10/23 05:02:51;;;;;;;1.57;0.87;;;5.60;99.90;;;;;;5067684;28;20468;-70
2023/10/23 05:05:17;;;;;;;3.80;1.10;;;5.70;99.90;;;;;;5067847;28;20469;-70
2023/10/23 05:07:43;;;;;;;3.03;1.10;;;5.70;99.90;;;;;;5067665;28;20668;-70
2023/10/23 05:10:11;;;;;;;2.80;1.57;;;5.70;99.90;;;;;;5068006;28;20313;-70
2023/10/23 05:12:37;;;;;;;4.97;1.20;;;5.70;99.90;;;;;;5067835;28;20175;-70
2023/10/23 05:15:03;;;;;;;3.43;1.43;;;5.70;99.90;;;;;;5067778;28;20465;-70
2023/10/23 05:17:29;;;;;;;3.23;1.20;;;5.70;99.90;;;;;;5065890;28;20441;-69
2023/10/23 05:19:54;;;;;;;3.63;1.20;;;5.70;99.90;;;;;;5067233;28;20411;-70
2023/10/23 05:22:20;;;;;;;9.07;3.43;;;5.80;99.90;;;;;;5066027;28;20286;-70
2023/10/23 05:24:46;;;;;;;5.03;1.60;;;5.80;99.90;;;;;;5065731;28;20220;-70
2023/10/23 05:27:15;;;;;;;2.27;1.13;;;5.80;99.90;;;;;;5065806;28;20303;-70
2023/10/23 05:29:41;;;;;;;10.27;2.50;;;5.80;99.90;;;;;;5067554;28;20417;-70
2023/10/23 05:32:07;;;;;;;3.80;1.50;;;5.70;99.90;;;;;;5067708;28;20529;-70
2023/10/23 05:34:33;;;;;;;5.00;1.97;;;5.60;99.90;;;;;;5067193;28;20192;-70
2023/10/23 05:36:59;;;;;;;5.53;1.60;;;5.60;99.90;;;;;;5067144;28;20195;-70
2023/10/23 05:39:25;;;;;;;2.63;1.57;;;5.60;99.90;;;;;;5067184;28;20421;-70
2023/10/23 05:41:51;;;;;;;2.50;1.73;;;5.60;99.90;;;;;;5067541;28;20421;-70
2023/10/23 05:44:16;;;;;;;3.67;2.10;;;5.70;99.90;;;;;;5067330;28;20895;-70
2023/10/23 05:46:42;;;;;;;2.47;1.80;;;5.70;99.90;;;;;;5067131;28;20223;-70
2023/10/23 05:49:08;;;;;;;6.80;2.43;;;5.70;99.90;;;;;;5067923;28;20184;-70
2023/10/23 05:51:33;;;;;;;3.17;1.97;;;5.70;99.90;;;;;;5068623;28;20560;-70
2023/10/23 05:53:59;;;;;;;1.73;1.63;;;5.70;99.90;;;;;;5068833;28;20286;-70
2023/10/23 05:56:24;;;;;;;4.03;1.60;;;5.70;99.90;;;;;;5068771;28;20257;-70
2023/10/23 05:58:50;;;;;;;2.73;1.80;;;5.70;99.90;;;;;;5050662;28;20313;-70
2023/10/23 06:01:17;;;;;;;4.17;1.47;;;5.80;99.90;;;;;;5068782;28;20199;-70
2023/10/23 06:03:43;;;;;;;7.70;2.97;;;5.80;99.90;;;;;;5068891;28;20464;-70
2023/10/23 06:06:09;;;;;;;3.00;1.53;;;5.80;99.90;;;;;;5068937;28;20784;-70
2023/10/23 06:08:35;;;;;;;4.53;1.80;;;5.80;99.90;;;;;;5067553;28;20406;-70
2023/10/23 06:11:01;;;;;;;1.70;1.60;;;5.80;99.90;;;;;;5068791;28;20846;-70
2023/10/23 06:13:26;;;;;;;10.83;2.33;;;5.90;99.90;;;;;;5067506;28;20296;-70
2023/10/23 06:15:52;;;;;;;4.50;2.20;;;5.80;99.90;;;;;;5068723;28;20417;-70
2023/10/23 06:18:18;;;;;;;6.93;3.03;;;5.80;99.90;;;;;;5068441;28;20443;-70
2023/10/23 06:20:44;;;;;;;3.70;2.40;;;5.80;99.90;;;;;;5068651;28;20214;-70
2023/10/23 06:23:10;;;;;;;4.73;2.33;;;5.80;99.90;;;;;;5068549;28;20194;-70
2023/10/23 06:25:35;;;;;;;5.50;2.33;;;5.90;99.90;;;;;;5068485;28;20466;-70
2023/10/23 06:28:03;;;;;;;13.17;2.53;;;6.00;99.90;;;;;;5068412;28;20216;-71
2023/10/23 06:30:29;;;;;;;3.00;1.67;;;6.00;99.90;;;;;;5068385;28;20176;-70
2023/10/23 06:32:54;;;;;;;3.50;1.47;;;6.00;99.90;;;;;;5067706;28;20465;-71
2023/10/23 06:35:20;;;;;;;3.73;1.70;;;6.10;99.90;;;;;;5067920;28;20923;-70
2023/10/23 06:37:47;;;;;;;5.90;2.13;;;6.20;99.90;;;;;;5067882;28;20202;-70
2023/10/23 06:40:12;;;;;;;4.40;2.23;;;6.30;99.90;;;;;;5067831;28;20304;-70
2023/10/23 06:42:38;;;;;;;3.97;2.60;;;6.20;99.90;;;;;;5066448;28;20421;-70
2023/10/23 06:45:05;;;;;;;11.87;5.40;;;6.40;99.90;;;;;;5067667;28;20359;-71
2023/10/23 06:47:30;;;;;;;9.40;5.97;;;6.30;99.90;;;;;;5067553;28;20202;-70
2023/10/23 06:49:56;;;;;;;11.03;5.97;;;6.50;99.90;;;;;;5067675;28;20421;-70
2023/10/23 06:52:21;;;;;;;22.37;10.70;;;6.70;99.90;;;;;;5067480;28;20183;-71
2023/10/23 06:54:47;;;;;;;12.50;5.43;;;6.70;99.90;;;;;;5067283;28;20192;-71
2023/10/23 06:57:12;;;;;;;10.57;3.53;;;6.70;99.90;;;;;;5067392;28;20211;-71
2023/10/23 06:59:38;;;;;;;8.03;4.47;;;6.90;99.90;;;;;;5069222;28;20184;-70
2023/10/23 07:02:04;;;;;;;10.63;5.13;;;7.00;99.90;;;;;;5071034;28;20209;-70
2023/10/23 07:04:29;;;;;;;9.97;4.50;;;7.10;99.90;;;;;;5071209;28;20208;-70
2023/10/23 07:06:56;;;;;;;11.23;4.80;;;7.20;99.90;;;;;;5070983;28;20282;-70
2023/10/23 07:09:22;;;;;;;9.30;4.10;;;7.20;99.90;;;;;;5070745;28;20647;-70
2023/10/23 07:11:48;;;;;;;10.30;4.17;;;7.40;99.90;;;;;;5069349;28;20414;-70
2023/10/23 07:14:14;;;;;;;7.43;5.27;;;7.40;99.90;;;;;;5070518;28;20183;-71
2023/10/23 07:16:40;;;;;;;9.30;7.10;;;7.40;99.90;;;;;;5070629;28;20524;-71
2023/10/23 07:19:06;;;;;;;11.10;6.00;;;7.50;99.90;;;;;;5070843;28;20512;-70
2023/10/23 07:21:32;;;;;;;7.77;5.20;;;7.60;99.90;;;;;;5070624;28;20438;-71
2023/10/23 07:23:57;;;;;;;7.80;4.40;;;7.70;99.90;;;;;;5070720;28;20191;-70
2023/10/23 07:26:23;;;;;;;6.13;4.20;;;7.60;99.90;;;;;;5069302;28;20441;-70
2023/10/23 07:28:50;;;;;;;5.77;4.40;;;7.70;99.90;;;;;;5070885;28;20182;-71
2023/10/23 07:31:16;;;;;;;18.10;6.23;;;7.80;99.90;;;;;;5070370;28;20181;-71
2023/10/23 07:33:41;;;;;;;12.57;5.23;;;7.80;99.90;;;;;;5070432;28;20511;-70
2023/10/23 07:36:10;;;;;;;11.97;5.37;;;7.90;99.90;;;;;;5070364;28;20990;-71
2023/10/23 07:38:37;;;;;;;8.27;5.50;;;7.90;99.90;;;;;;5068985;28;20181;-71
2023/10/23 07:41:03;;;;;;;8.33;4.47;;;7.90;99.90;;;;;;5070352;28;20420;-70
2023/10/23 07:43:29;;;;;;;8.37;4.77;;;7.90;99.90;;;;;;5070210;28;20408;-71
2023/10/23 07:45:55;;;;;;;10.10;5.17;;;8.00;99.90;;;;;;5070158;28;21129;-71
2023/10/23 07:48:23;;;;;;;6.73;5.70;;;8.10;99.90;;;;;;5070400;28;20433;-71
2023/10/23 07:50:49;;;;;;;12.80;7.40;;;8.20;99.90;;;;;;5070227;28;20424;-70
2023/10/23 07:53:14;;;;;;;14.17;5.93;;;8.30;99.90;;;;;;5070505;28;21195;-70
2023/10/23 07:55:40;;;;;;;8.13;4.73;;;8.30;99.90;;;;;;5070416;28;20413;-71
2023/10/23 07:58:05;;;;;;;8.80;4.70;;;8.40;99.90;;;;;;5070409;28;20208;-70
2023/10/23 08:00:31;;;;;;;9.70;4.40;;;8.40;99.90;;;;;;5070611;28;20202;-70
2023/10/23 08:02:57;;;;;;;8.30;4.20;;;8.50;99.90;;;;;;5070504;28;20209;-70
2023/10/23 08:05:23;;;;;;;6.83;4.57;;;8.60;99.90;;;;;;5070450;28;20223;-70
2023/10/23 08:07:49;;;;;;;7.20;4.50;;;8.50;99.90;;;;;;5070578;28;20840;-70
2023/10/23 08:10:14;;;;;;;9.30;4.70;;;8.50;99.90;;;;;;5068925;28;20534;-70
2023/10/23 08:12:40;;;;;;;10.23;6.30;;;8.70;99.90;;;;;;5070122;28;20210;-70
2023/10/23 08:15:07;;;;;;;6.03;4.80;;;8.90;99.90;;;;;;5070360;28;20562;-70
2023/10/23 08:17:33;;;;;;;6.00;4.43;;;9.00;99.90;;;;;;5070606;28;20206;-70
2023/10/23 08:19:59;;;;;;;8.90;4.30;;;9.00;99.90;;;;;;5070456;28;20480;-71
2023/10/23 08:22:24;;;;;;;4.83;3.97;;;9.10;99.90;;;;;;5070525;28;20422;-71
2023/10/23 08:24:50;;;;;;;8.90;5.23;;;9.30;99.90;;;;;;5070424;28;20458;-71
2023/10/23 08:27:16;;;;;;;5.67;3.87;;;9.30;99.90;;;;;;5068992;28;20652;-70
2023/10/23 08:29:41;;;;;;;8.97;4.83;;;9.40;99.90;;;;;;5071155;28;20266;-70
2023/10/23 08:32:07;;;;;;;8.10;4.73;;;9.40;99.90;;;;;;5068978;28;20259;-70
2023/10/23 08:34:33;;;;;;;8.77;5.13;;;9.40;99.90;;;;;;5068781;28;20704;-70
2023/10/23 08:36:58;;;;;;;7.37;4.47;;;9.40;99.90;;;;;;5070399;28;20206;-70
2023/10/23 08:39:25;;;;;;;7.63;4.20;;;9.30;99.90;;;;;;5069930;28;20182;-70
2023/10/23 08:41:50;;;;;;;12.87;5.20;;;9.30;99.90;;;;;;5069774;28;20180;-69
2023/10/23 08:44:17;;;;;;;7.23;4.00;;;9.30;99.90;;;;;;5069465;28;20453;-70
2023/10/23 08:46:43;;;;;;;5.63;4.00;;;9.40;99.90;;;;;;5067667;28;20216;-70
2023/10/23 08:49:08;;;;;;;7.60;4.17;;;9.60;99.90;;;;;;5069210;28;21065;-70
2023/10/23 08:51:35;;;;;;;7.10;4.43;;;9.70;99.90;;;;;;5067778;28;20433;-70
2023/10/23 08:54:21;;;;;;;7.43;4.17;;;9.90;99.90;;;;;;5067398;28;20264;-70
2023/10/23 08:56:56;;;;;;;8.07;4.37;;;10.00;99.90;;;;;;5068354;28;20444;-70
2023/10/23 08:59:22;;;;;;;6.63;4.80;;;10.10;99.90;;;;;;5068914;28;20407;-69
2023/10/23 09:01:48;;;;;;;11.20;4.90;;;10.10;99.90;;;;;;5068620;28;20442;-69
2023/10/23 09:04:13;;;;;;;13.60;4.83;;;10.10;99.90;;;;;;5068731;28;20463;-69
2023/10/23 09:06:39;;;;;;;6.10;4.20;;;10.00;99.90;;;;;;5068807;28;20309;-70
2023/10/23 09:09:06;;;;;;;9.83;5.50;;;10.00;99.90;;;;;;5068407;28;20670;-70
2023/10/23 09:11:45;;;;;;;5.97;4.73;;;10.10;99.90;;;;;;5066673;28;20435;-71
2023/10/23 09:14:22;;;;;;;9.73;5.70;;;10.10;99.90;;;;;;5066687;28;20443;-70
2023/10/23 09:16:48;;;;;;;13.33;6.40;;;10.10;99.90;;;;;;5067794;28;20943;-70
2023/10/23 09:19:27;;;;;;;9.83;5.53;;;10.10;99.90;;;;;;5068099;28;20425;-70
2023/10/23 09:21:54;;;;;;;7.77;4.80;;;10.00;99.90;;;;;;5067661;28;20181;-71
2023/10/23 09:24:21;;;;;;;12.70;6.00;;;10.00;99.90;;;;;;5067298;28;20494;-71
2023/10/23 09:26:48;;;;;;;16.03;4.83;;;10.00;99.90;;;;;;5066451;28;20446;-70
2023/10/23 09:29:14;;;;;;;15.40;5.27;;;10.00;99.90;;;;;;5066772;28;20425;-71
2023/10/23 09:31:40;;;;;;;8.53;5.00;;;10.00;99.90;;;;;;5049847;28;20432;-71
2023/10/23 09:34:07;;;;;;;25.57;5.67;;;10.20;99.90;;;;;;5068139;28;20186;-71
2023/10/23 09:36:33;;;;;;;11.00;5.83;;;10.20;99.90;;;;;;5068260;28;20470;-71
2023/10/23 09:39:00;;;;;;;9.17;4.97;;;10.20;99.90;;;;;;5068303;28;20424;-71
2023/10/23 09:41:27;;;;;;;15.80;5.30;;;10.30;99.90;;;;;;5066646;28;20498;-71
2023/10/23 09:43:56;;;;;;;12.37;5.47;;;10.30;99.90;;;;;;5067607;28;20426;-70
2023/10/23 09:46:27;;;;;;;12.23;5.30;;;10.50;99.90;;;;;;5067698;28;20470;-70
2023/10/23 09:48:55;;;;;;;9.30;4.83;;;10.50;99.90;;;;;;5067571;28;21002;-70
2023/10/23 09:51:27;;;;;;;9.73;5.10;;;10.60;99.90;;;;;;5067488;28;20416;-71
2023/10/23 09:54:00;;;;;;;7.83;4.30;;;10.60;99.90;;;;;;5067713;28;20417;-70
2023/10/23 09:56:33;;;;;;;8.10;4.40;;;10.70;99.90;;;;;;5065849;28;20422;-71
2023/10/23 09:59:04;;;;;;;8.77;4.67;;;10.70;99.90;;;;;;5065884;28;20841;-71
2023/10/23 10:01:33;;;;;;;6.27;4.50;;;10.70;99.90;;;;;;5067234;28;20482;-70
2023/10/23 10:04:08;;;;;;;8.90;4.60;;;10.90;99.90;;;;;;5067208;28;21032;-70
2023/10/23 10:06:36;;;;;;;12.37;4.93;;;10.90;99.90;;;;;;5067136;28;20440;-70
2023/10/23 10:09:04;;;;;;;4.80;3.70;;;11.10;99.90;;;;;;5065846;28;20440;-71
2023/10/23 10:11:30;;;;;;;7.93;4.70;;;11.20;99.90;;;;;;5067071;28;20422;-71
2023/10/23 10:13:56;;;;;;;5.50;3.70;;;11.30;99.90;;;;;;5065695;28;20435;-70
2023/10/23 10:16:22;;;;;;;12.03;3.97;;;11.50;99.90;;;;;;5065350;28;21036;-70
2023/10/23 10:18:48;;;;;;;8.53;4.03;;;11.50;99.90;;;;;;5065542;28;20415;-70
2023/10/23 10:21:19;;;;;;;5.67;4.00;;;11.50;99.90;;;;;;5067053;28;20207;-71
2023/10/23 10:23:45;;;;;;;9.90;4.80;;;11.60;99.90;;;;;;5066819;28;20489;-70
2023/10/23 10:26:11;;;;;;;7.90;4.30;;;11.80;99.90;;;;;;5066690;28;20523;-70
2023/10/23 10:28:39;;;;;;;7.30;3.90;;;12.10;99.90;;;;;;5065473;28;20183;-70
2023/10/23 10:31:05;;;;;;;7.60;4.40;;;12.50;99.90;;;;;;5065420;28;20515;-70
2023/10/23 10:33:31;;;;;;;7.10;3.70;;;12.90;99.90;;;;;;5065545;28;20527;-70
2023/10/23 10:36:05;;;;;;;11.70;4.03;;;13.00;99.90;;;;;;5070840;28;20203;-70
2023/10/23 10:38:32;;;;;;;5.90;3.83;;;12.90;99.90;;;;;;5070899;28;20826;-70
2023/10/23 10:41:14;;;;;;;10.10;3.40;;;13.20;99.90;;;;;;5070985;28;21098;-70
2023/10/23 10:43:39;;;;;;;10.23;3.90;;;13.10;99.90;;;;;;5070622;28;20413;-70
2023/10/23 10:46:22;;;;;;;14.70;6.50;;;13.10;99.90;;;;;;5070707;28;20562;-70
2023/10/23 10:48:50;;;;;;;13.93;7.53;;;13.10;99.90;;;;;;5070789;28;20179;-70
2023/10/23 10:51:23;;;;;;;11.13;6.80;;;13.10;99.90;;;;;;5070719;28;20447;-70
2023/10/23 10:54:03;;;;;;;23.97;8.70;;;13.10;99.90;;;;;;5071021;28;20467;-70
2023/10/23 10:56:30;;;;;;;20.30;8.17;;;13.10;99.90;;;;;;5070952;28;20423;-70
2023/10/23 10:59:03;;;;;;;11.37;5.93;;;13.10;99.90;;;;;;5070960;28;20409;-70
2023/10/23 11:01:29;;;;;;;13.07;6.27;;;13.00;99.90;;;;;;5069306;28;20448;-70
2023/10/23 11:03:55;;;;;;;7.57;5.17;;;13.10;99.90;;;;;;5071021;28;20833;-70
2023/10/23 11:06:21;;;;;;;9.63;5.73;;;13.20;99.90;;;;;;5071079;28;20497;-71
2023/10/23 11:08:47;;;;;;;15.50;5.80;;;13.30;99.90;;;;;;5069478;28;20911;-70
2023/10/23 11:11:12;;;;;;;11.43;4.93;;;13.40;99.90;;;;;;5069616;28;20183;-70
2023/10/23 11:13:40;;;;;;;6.43;3.63;;;13.60;99.90;;;;;;5071228;28;20269;-71
2023/10/23 11:16:06;;;;;;;4.70;2.90;;;13.70;99.90;;;;;;5070860;28;20248;-71
2023/10/23 11:18:31;;;;;;;9.97;4.00;;;13.70;99.90;;;;;;5069393;28;21022;-71
2023/10/23 11:20:59;;;;;;;13.10;6.13;;;13.50;99.90;;;;;;5070881;28;20492;-70
2023/10/23 11:23:29;;;;;;;12.00;5.73;;;13.40;99.90;;;;;;5069472;28;20184;-71
2023/10/23 11:25:55;;;;;;;12.13;4.63;;;13.40;99.90;;;;;;5070842;28;20495;-71
2023/10/23 11:28:21;;;;;;;13.20;4.50;;;13.40;99.90;;;;;;5070902;28;21266;-71
2023/10/23 11:30:49;;;;;;;6.33;4.80;;;13.30;99.90;;;;;;5070511;28;20190;-70
2023/10/23 11:33:15;;;;;;;7.67;4.93;;;13.30;99.90;;;;;;5068565;28;20447;-71
2023/10/23 11:35:42;;;;;;;8.70;4.43;;;13.30;99.90;;;;;;5070278;28;20425;-70
2023/10/23 11:38:24;;;;;;;9.97;4.70;;;13.40;99.90;;;;;;5069949;28;21008;-70
2023/10/23 11:40:53;;;;;;;10.10;4.70;;;13.30;99.90;;;;;;5070233;28;21000;-70
2023/10/23 11:43:18;;;;;;;12.37;5.10;;;13.30;99.90;;;;;;5070150;28;20413;-70
2023/10/23 11:45:45;;;;;;;15.27;5.60;;;13.20;99.90;;;;;;5068838;28;20463;-71
2023/10/23 11:48:12;;;;;;;10.47;6.00;;;13.30;99.90;;;;;;5068797;28;20206;-70
2023/10/23 11:50:39;;;;;;;10.00;6.47;;;13.30;99.90;;;;;;5069896;28;20961;-70
2023/10/23 11:53:05;;;;;;;6.07;4.60;;;13.30;99.90;;;;;;5069973;28;20409;-70
2023/10/23 11:55:32;;;;;;;15.03;6.03;;;13.30;99.90;;;;;;5068010;28;20979;-70
2023/10/23 11:57:58;;;;;;;13.97;7.17;;;13.40;99.90;;;;;;5068308;28;20449;-71
2023/10/23 12:00:24;;;;;;;15.50;5.93;;;13.40;99.90;;;;;;5069696;28;20418;-71
2023/10/23 12:02:50;;;;;;;10.70;5.70;;;13.50;99.90;;;;;;5069645;28;20957;-71
2023/10/23 12:05:18;;;;;;;14.93;6.80;;;13.50;99.90;;;;;;5069838;28;20719;-70
2023/10/23 12:07:46;;;;;;;7.10;4.70;;;13.50;99.90;;;;;;5069622;28;20494;-70
2023/10/23 12:10:13;;;;;;;11.93;4.77;;;13.60;99.90;;;;;;5069877;28;20416;-71
2023/10/23 12:12:41;;;;;;;6.80;5.10;;;13.70;99.90;;;;;;5068675;28;20422;-71
2023/10/23 12:15:08;;;;;;;8.10;4.87;;;13.80;99.90;;;;;;5070108;28;20413;-70
2023/10/23 12:17:34;;;;;;;8.30;3.63;;;13.90;99.90;;;;;;5069869;28;20448;-71
2023/10/23 12:20:00;;;;;;;9.83;3.37;;;14.00;99.90;;;;;;5069865;28;20417;-71
2023/10/23 12:22:26;;;;;;;4.73;3.17;;;14.10;99.90;;;;;;5069891;28;20711;-70
2023/10/23 12:24:51;;;;;;;6.73;2.97;;;14.10;99.90;;;;;;5069810;28;20449;-71
2023/10/23 12:27:17;;;;;;;5.00;2.80;;;14.10;99.90;;;;;;5069855;28;20222;-71
2023/10/23 12:29:43;;;;;;;11.33;4.07;;;14.10;99.90;;;;;;5069582;28;20179;-71
2023/10/23 12:32:09;;;;;;;11.53;5.57;;;14.10;99.90;;;;;;5069587;28;20267;-71
2023/10/23 12:34:35;;;;;;;10.27;5.77;;;14.10;99.90;;;;;;5068211;28;20187;-70
2023/10/23 12:37:01;;;;;;;23.37;10.77;;;14.10;99.90;;;;;;5069345;28;20869;-70
2023/10/23 12:39:28;;;;;;;26.70;12.67;;;14.10;99.90;;;;;;5067555;28;20423;-70
2023/10/23 12:41:54;;;;;;;31.00;12.60;;;14.10;99.90;;;;;;5068925;28;20426;-70
2023/10/23 12:44:19;;;;;;;29.57;11.77;;;14.10;99.90;;;;;;5067304;28;20461;-70
2023/10/23 12:46:45;;;;;;;24.93;9.07;;;14.10;99.90;;;;;;5068653;28;20265;-70